AirNav   Pilot Hours Calculator
 
 895 users online  

9MN3 Barnesville Municipal Airport
Barnesville, Minnesota, USA

GOING TO BARNESVILLE?


FAA INFORMATION EFFECTIVE 11 AUGUST 2022

Location

FAA Identifier: 9MN3
Lat/Long: 46-39-54.8560N 096-26-28.2460W
46-39.914267N 096-26.470767W
46.6652378,-96.4411794
(estimated)
Elevation: 980 ft. / 299 m (estimated)
Variation: 06E (1985)
From city: 1 mile NW of BARNESVILLE, MN
Time zone: UTC -5 (UTC -6 during Standard Time)
Zip code: 56514

Airport Operations

Airport use: Private use. Permission required prior to landing
Activation date: 08/1985
Control tower: no
ARTCC: MINNEAPOLIS CENTER
FSS: PRINCETON FLIGHT SERVICE STATION
Attendance: UNATNDD
Wind indicator: yes
Segmented circle: no

Airport Communications

WX AWOS-3 at JKJ (14 nm NW): 120.0 (218-287-5049)

Nearby radio navigation aids

VOR radial/distance  VOR name  Freq  Var
FARr098/17.7FARGO VOR/DME116.2009E
DTLr245/24.7DETROIT LAKES VOR/DME111.2002E
FFMr327/25.4FERGUS FALLS VOR/DME110.4005E

Airport Services

Parking: tiedowns

Runway Information

Runway 17/35

Dimensions: 2780 x 50 ft. / 847 x 15 m
Surface: turf, in good condition
Runway edge markings: MKD WITH YELLOW CONES.
RUNWAY 17  RUNWAY 35
Traffic pattern: leftleft
Obstructions: 33 ft. rr, 880 ft. from runway, 125 ft. left of centerline, 26:1 slope to clear45 ft. trees, 870 ft. from runway, 100 ft. right of centerline, 19:1 slope to clear

Airport Ownership and Management from official FAA records

Ownership: Publicly-owned
Owner: CITY OF BARNESVILLE
102 FRONT STREET N
BARNESVILLE, MN 56514
Phone 218-354-2292
Manager: MICHAEL RIETZ
PO BOX 550
BARNESVILLE, MN 56514
Phone 218-354-2292
TREVOR MOEN 218-354-7645 BVILLEPW@BVILLEMN.NET

Airport Operational Statistics

Aircraft operations: 200/year *
100% transient general aviation
* for 12-month period ending 30 May 2001

Additional Remarks

ARPT CLSD WINTER MONTHS.
FOR CD CTC MINNEAPOLIS ARTCC AT 651-463-5588.

Instrument Procedures

There are no published instrument procedures at 9MN3.

Some nearby airports with instrument procedures:

04Y - Hawley Municipal Airport (14 nm N)
KJKJ - Moorhead Municipal Airport/Florence Klingensmith Field (14 nm NW)
KFAR - Hector International Airport (22 nm NW)
K74 - Robert Odegaard Field Airport (23 nm W)
KDTL - Detroit Lakes Airport-Wething Field (25 nm NE)
 
Loc | Ops | Rwys | IFR | FBO | Links
Com | Nav | Svcs | Stats | Notes
Area around 9MN3 (Barnesville Municipal Airport)
 
Road maps at: MapQuest Bing Google
 
Aerial photo
No photo
 
Sectional chart

 
Airport distance calculator
Flying to Barnesville Municipal Airport? Find the distance to fly.

From to 9MN3

Sunrise and sunset
Times for 16-Aug-2022
 Local
(UTC-5)
 Zulu
(UTC)
Morning civil twilight05:5310:53
Sunrise06:2611:26
Sunset20:3401:34
Evening civil twilight21:0702:07

Current date and time
Zulu (UTC)  17-Aug-2022 03:56:31
Local (UTC-5)  16-Aug-2022 22:56:31
 
METAR
KJKJ 
14nm NW 
170335Z AUTO 16008KT 10SM SCT065 22/18 A3007 RMK AO2 TSNO
KFAR 
22nm NW 
170253Z 18007KT 10SM CLR 22/18 A3005 RMK AO2 SLP173 T02220178 53004
KDTL 
25nm E 
170335Z AUTO 17005KT 10SM FEW043 FEW049 SCT055 21/18 A3010 RMK AO2
KBWP 
26nm S 
170335Z AUTO 18009KT 10SM FEW043 FEW060 22/17 A3007 RMK AO2
KFFM 
27nm SE 
161755Z AUTO 22012G18KT CLR 27/17 A3009 RMK AO2
TAF
KFAR 
22nm NW 
161740Z 1618/1718 21012G20KT P6SM SCT025 BKN100 FM170200 16006KT P6SM OVC250
NOTAMs
Click for the latest NOTAMs
NOTAMs are issued by the DoD/FAA and will open in a separate window not controlled by AirNav.

 

 
 

Would you like to see your business listed on this page?

 If your business provides an interesting product or service to pilots, flight crews, aircraft, or users of the Barnesville Municipal Airport, you should consider listing it here.  To start the listing process, click on the button below
 
Add a business
 

Other Pages about Barnesville Municipal Airport

Update a link
 
Copyright © AirNav, LLC. All rights reserved. Privacy Policy  Contact